sensor_id;sensor_type;location;lat;lon;timestamp;temperature;humidity
13642;DHT22;6894;52.196;9.904;2023-07-28T00:00:49;18.30;99.90
13642;DHT22;6894;52.196;9.904;2023-07-28T00:03:16;18.40;99.90
13642;DHT22;6894;52.196;9.904;2023-07-28T00:05:42;18.30;99.90
13642;DHT22;6894;52.196;9.904;2023-07-28T00:08:09;18.40;99.90
13642;DHT22;6894;52.196;9.904;2023-07-28T00:10:40;18.40;99.90
13642;DHT22;6894;52.196;9.904;2023-07-28T00:13:08;18.30;99.90
13642;DHT22;6894;52.196;9.904;2023-07-28T00:15:35;18.30;99.90
13642;DHT22;6894;52.196;9.904;2023-07-28T00:18:02;18.30;99.90
13642;DHT22;6894;52.196;9.904;2023-07-28T00:20:28;18.30;99.90
13642;DHT22;6894;52.196;9.904;2023-07-28T00:22:55;18.30;99.90
13642;DHT22;6894;52.196;9.904;2023-07-28T00:25:22;18.30;99.90
13642;DHT22;6894;52.196;9.904;2023-07-28T00:27:49;18.30;99.90
13642;DHT22;6894;52.196;9.904;2023-07-28T00:30:17;18.30;99.90
13642;DHT22;6894;52.196;9.904;2023-07-28T00:32:43;18.30;99.90
13642;DHT22;6894;52.196;9.904;2023-07-28T00:35:10;18.30;99.90
13642;DHT22;6894;52.196;9.904;2023-07-28T00:37:37;18.30;99.90
13642;DHT22;6894;52.196;9.904;2023-07-28T00:40:04;18.30;99.90
13642;DHT22;6894;52.196;9.904;2023-07-28T00:42:31;18.30;99.90
13642;DHT22;6894;52.196;9.904;2023-07-28T00:44:58;18.20;99.90
13642;DHT22;6894;52.196;9.904;2023-07-28T00:47:26;18.20;99.90
13642;DHT22;6894;52.196;9.904;2023-07-28T00:49:53;18.30;99.90
13642;DHT22;6894;52.196;9.904;2023-07-28T00:52:19;18.20;99.90
13642;DHT22;6894;52.196;9.904;2023-07-28T00:54:46;18.20;99.90
13642;DHT22;6894;52.196;9.904;2023-07-28T00:57:13;18.20;99.90
13642;DHT22;6894;52.196;9.904;2023-07-28T00:59:40;18.20;99.90
13642;DHT22;6894;52.196;9.904;2023-07-28T01:02:06;18.20;99.90
13642;DHT22;6894;52.196;9.904;2023-07-28T01:04:34;18.40;99.90
13642;DHT22;6894;52.196;9.904;2023-07-28T01:07:07;18.10;99.90
13642;DHT22;6894;52.196;9.904;2023-07-28T01:09:43;18.20;99.90
13642;DHT22;6894;52.196;9.904;2023-07-28T01:12:13;18.20;99.90
13642;DHT22;6894;52.196;9.904;2023-07-28T01:14:39;18.20;99.90
13642;DHT22;6894;52.196;9.904;2023-07-28T01:17:06;18.20;99.90
13642;DHT22;6894;52.196;9.904;2023-07-28T01:19:34;18.20;99.90
13642;DHT22;6894;52.196;9.904;2023-07-28T01:22:16;18.20;99.90
13642;DHT22;6894;52.196;9.904;2023-07-28T01:24:54;18.20;99.90
13642;DHT22;6894;52.196;9.904;2023-07-28T01:27:23;18.30;99.90
13642;DHT22;6894;52.196;9.904;2023-07-28T01:29:50;18.20;99.90
13642;DHT22;6894;52.196;9.904;2023-07-28T01:32:17;18.20;99.90
13642;DHT22;6894;52.196;9.904;2023-07-28T01:34:44;18.10;99.90
13642;DHT22;6894;52.196;9.904;2023-07-28T01:37:11;18.10;99.90
13642;DHT22;6894;52.196;9.904;2023-07-28T01:39:37;18.10;99.90
13642;DHT22;6894;52.196;9.904;2023-07-28T01:42:04;18.10;99.90
13642;DHT22;6894;52.196;9.904;2023-07-28T01:44:32;18.10;99.90
13642;DHT22;6894;52.196;9.904;2023-07-28T01:46:59;18.10;99.90
13642;DHT22;6894;52.196;9.904;2023-07-28T01:49:26;18.10;99.90
13642;DHT22;6894;52.196;9.904;2023-07-28T01:51:53;18.10;99.90
13642;DHT22;6894;52.196;9.904;2023-07-28T01:54:19;18.10;99.90
13642;DHT22;6894;52.196;9.904;2023-07-28T01:56:46;18.10;99.90
13642;DHT22;6894;52.196;9.904;2023-07-28T01:59:13;18.10;99.90
13642;DHT22;6894;52.196;9.904;2023-07-28T02:01:41;18.10;99.90
13642;DHT22;6894;52.196;9.904;2023-07-28T02:04:07;18.10;99.90
13642;DHT22;6894;52.196;9.904;2023-07-28T02:06:34;18.10;99.90
13642;DHT22;6894;52.196;9.904;2023-07-28T02:09:01;18.10;99.90
13642;DHT22;6894;52.196;9.904;2023-07-28T02:11:27;18.10;99.90
13642;DHT22;6894;52.196;9.904;2023-07-28T02:13:54;18.10;99.90
13642;DHT22;6894;52.196;9.904;2023-07-28T02:16:21;18.10;99.90
13642;DHT22;6894;52.196;9.904;2023-07-28T02:18:49;18.10;99.90
13642;DHT22;6894;52.196;9.904;2023-07-28T02:21:16;18.20;99.90
13642;DHT22;6894;52.196;9.904;2023-07-28T02:23:42;18.20;99.90
13642;DHT22;6894;52.196;9.904;2023-07-28T02:26:09;18.10;99.90
13642;DHT22;6894;52.196;9.904;2023-07-28T02:28:36;18.10;99.90
13642;DHT22;6894;52.196;9.904;2023-07-28T02:31:02;18.10;99.90
13642;DHT22;6894;52.196;9.904;2023-07-28T02:33:29;18.10;99.90
13642;DHT22;6894;52.196;9.904;2023-07-28T02:35:58;18.10;99.90
13642;DHT22;6894;52.196;9.904;2023-07-28T02:38:25;18.10;99.90
13642;DHT22;6894;52.196;9.904;2023-07-28T02:40:51;18.10;99.90
13642;DHT22;6894;52.196;9.904;2023-07-28T02:43:18;18.10;99.90
13642;DHT22;6894;52.196;9.904;2023-07-28T02:45:48;18.20;99.90
13642;DHT22;6894;52.196;9.904;2023-07-28T02:48:15;18.10;99.90
13642;DHT22;6894;52.196;9.904;2023-07-28T02:50:45;18.10;99.90
13642;DHT22;6894;52.196;9.904;2023-07-28T02:53:13;18.10;99.90
13642;DHT22;6894;52.196;9.904;2023-07-28T02:55:41;18.10;99.90
13642;DHT22;6894;52.196;9.904;2023-07-28T02:58:08;18.20;99.90
13642;DHT22;6894;52.196;9.904;2023-07-28T03:00:37;18.10;99.90
13642;DHT22;6894;52.196;9.904;2023-07-28T03:03:03;18.10;99.90
13642;DHT22;6894;52.196;9.904;2023-07-28T03:05:31;18.10;99.90
13642;DHT22;6894;52.196;9.904;2023-07-28T03:07:59;18.10;99.90
13642;DHT22;6894;52.196;9.904;2023-07-28T03:10:27;18.10;99.90
13642;DHT22;6894;52.196;9.904;2023-07-28T03:12:53;18.10;99.90
13642;DHT22;6894;52.196;9.904;2023-07-28T03:15:20;18.10;99.90
13642;DHT22;6894;52.196;9.904;2023-07-28T03:17:48;18.10;99.90
13642;DHT22;6894;52.196;9.904;2023-07-28T03:20:15;18.10;99.90
13642;DHT22;6894;52.196;9.904;2023-07-28T03:22:42;18.10;99.90
13642;DHT22;6894;52.196;9.904;2023-07-28T03:25:10;18.20;99.90
13642;DHT22;6894;52.196;9.904;2023-07-28T03:27:38;18.10;99.90
13642;DHT22;6894;52.196;9.904;2023-07-28T03:30:06;18.10;99.90
13642;DHT22;6894;52.196;9.904;2023-07-28T03:32:36;18.10;99.90
13642;DHT22;6894;52.196;9.904;2023-07-28T03:35:02;18.10;99.90
13642;DHT22;6894;52.196;9.904;2023-07-28T03:37:30;18.10;99.90
13642;DHT22;6894;52.196;9.904;2023-07-28T03:39:57;18.00;99.90
13642;DHT22;6894;52.196;9.904;2023-07-28T03:42:24;18.10;99.90
13642;DHT22;6894;52.196;9.904;2023-07-28T03:44:52;18.10;99.90
13642;DHT22;6894;52.196;9.904;2023-07-28T03:47:19;18.10;99.90
13642;DHT22;6894;52.196;9.904;2023-07-28T03:49:46;18.10;99.90
13642;DHT22;6894;52.196;9.904;2023-07-28T03:52:12;18.10;99.90
13642;DHT22;6894;52.196;9.904;2023-07-28T03:54:39;18.20;99.90
13642;DHT22;6894;52.196;9.904;2023-07-28T03:57:06;18.10;99.90
13642;DHT22;6894;52.196;9.904;2023-07-28T03:59:33;18.20;99.90
13642;DHT22;6894;52.196;9.904;2023-07-28T04:02:01;18.10;99.90
13642;DHT22;6894;52.196;9.904;2023-07-28T04:04:28;18.20;99.90
13642;DHT22;6894;52.196;9.904;2023-07-28T04:06:54;18.10;99.90
13642;DHT22;6894;52.196;9.904;2023-07-28T04:09:21;18.10;99.90
13642;DHT22;6894;52.196;9.904;2023-07-28T04:11:48;18.10;99.90
13642;DHT22;6894;52.196;9.904;2023-07-28T04:14:15;18.20;99.90
13642;DHT22;6894;52.196;9.904;2023-07-28T04:16:41;18.20;99.90
13642;DHT22;6894;52.196;9.904;2023-07-28T04:19:09;18.20;99.90
13642;DHT22;6894;52.196;9.904;2023-07-28T04:21:36;18.20;99.90
13642;DHT22;6894;52.196;9.904;2023-07-28T04:24:05;18.20;99.90
13642;DHT22;6894;52.196;9.904;2023-07-28T04:26:32;18.20;99.90
13642;DHT22;6894;52.196;9.904;2023-07-28T04:28:59;18.20;99.90
13642;DHT22;6894;52.196;9.904;2023-07-28T04:31:25;18.20;99.90
13642;DHT22;6894;52.196;9.904;2023-07-28T04:33:52;18.20;99.90
13642;DHT22;6894;52.196;9.904;2023-07-28T04:36:20;18.20;99.90
13642;DHT22;6894;52.196;9.904;2023-07-28T04:38:47;18.20;99.90
13642;DHT22;6894;52.196;9.904;2023-07-28T04:41:14;18.30;99.90
13642;DHT22;6894;52.196;9.904;2023-07-28T04:43:40;18.30;99.90
13642;DHT22;6894;52.196;9.904;2023-07-28T04:46:07;18.30;99.90
13642;DHT22;6894;52.196;9.904;2023-07-28T04:48:34;18.30;99.90
13642;DHT22;6894;52.196;9.904;2023-07-28T04:51:00;18.30;99.90
13642;DHT22;6894;52.196;9.904;2023-07-28T04:53:28;18.30;99.90
13642;DHT22;6894;52.196;9.904;2023-07-28T04:55:55;18.30;99.90
13642;DHT22;6894;52.196;9.904;2023-07-28T04:58:22;18.20;99.90
13642;DHT22;6894;52.196;9.904;2023-07-28T05:00:48;18.30;99.90
13642;DHT22;6894;52.196;9.904;2023-07-28T05:03:15;18.30;99.90
13642;DHT22;6894;52.196;9.904;2023-07-28T05:05:43;18.20;99.90
13642;DHT22;6894;52.196;9.904;2023-07-28T05:08:10;18.20;99.90
13642;DHT22;6894;52.196;9.904;2023-07-28T05:10:38;18.20;99.90
13642;DHT22;6894;52.196;9.904;2023-07-28T05:13:05;18.20;99.90
13642;DHT22;6894;52.196;9.904;2023-07-28T05:15:32;18.10;99.90
13642;DHT22;6894;52.196;9.904;2023-07-28T05:17:58;18.10;99.90
13642;DHT22;6894;52.196;9.904;2023-07-28T05:20:25;18.10;99.90
13642;DHT22;6894;52.196;9.904;2023-07-28T05:22:52;18.10;99.90
13642;DHT22;6894;52.196;9.904;2023-07-28T05:25:18;18.10;99.90
13642;DHT22;6894;52.196;9.904;2023-07-28T05:27:46;18.10;99.90
13642;DHT22;6894;52.196;9.904;2023-07-28T05:30:13;18.10;99.90
13642;DHT22;6894;52.196;9.904;2023-07-28T05:32:39;18.10;99.90
13642;DHT22;6894;52.196;9.904;2023-07-28T05:35:07;18.10;99.90
13642;DHT22;6894;52.196;9.904;2023-07-28T05:37:33;18.10;99.90
13642;DHT22;6894;52.196;9.904;2023-07-28T05:40:00;18.10;99.90
13642;DHT22;6894;52.196;9.904;2023-07-28T05:42:27;18.10;99.90
13642;DHT22;6894;52.196;9.904;2023-07-28T05:44:55;18.10;99.90
13642;DHT22;6894;52.196;9.904;2023-07-28T05:47:22;18.20;99.90
13642;DHT22;6894;52.196;9.904;2023-07-28T05:49:49;18.20;99.90
13642;DHT22;6894;52.196;9.904;2023-07-28T05:52:15;18.20;99.90
13642;DHT22;6894;52.196;9.904;2023-07-28T05:54:42;18.30;99.90
13642;DHT22;6894;52.196;9.904;2023-07-28T05:57:09;18.30;99.90
13642;DHT22;6894;52.196;9.904;2023-07-28T05:59:36;18.30;99.90
13642;DHT22;6894;52.196;9.904;2023-07-28T06:02:05;18.30;99.90
13642;DHT22;6894;52.196;9.904;2023-07-28T06:04:32;18.30;99.90
13642;DHT22;6894;52.196;9.904;2023-07-28T06:06:58;18.40;99.90
13642;DHT22;6894;52.196;9.904;2023-07-28T06:09:25;18.50;99.90
13642;DHT22;6894;52.196;9.904;2023-07-28T06:11:52;18.60;99.90
13642;DHT22;6894;52.196;9.904;2023-07-28T06:14:19;18.70;99.90
13642;DHT22;6894;52.196;9.904;2023-07-28T06:16:45;18.80;99.90
13642;DHT22;6894;52.196;9.904;2023-07-28T06:19:13;18.90;99.90
13642;DHT22;6894;52.196;9.904;2023-07-28T06:21:42;18.90;99.90
13642;DHT22;6894;52.196;9.904;2023-07-28T06:24:09;18.90;99.90
13642;DHT22;6894;52.196;9.904;2023-07-28T06:26:35;19.00;99.90
13642;DHT22;6894;52.196;9.904;2023-07-28T06:29:02;19.00;99.90
13642;DHT22;6894;52.196;9.904;2023-07-28T06:31:29;19.10;99.90
13642;DHT22;6894;52.196;9.904;2023-07-28T06:33:55;19.10;99.90
13642;DHT22;6894;52.196;9.904;2023-07-28T06:36:24;19.10;99.90
13642;DHT22;6894;52.196;9.904;2023-07-28T06:38:51;19.10;99.90
13642;DHT22;6894;52.196;9.904;2023-07-28T06:41:19;19.10;99.90
13642;DHT22;6894;52.196;9.904;2023-07-28T06:43:46;19.00;99.90
13642;DHT22;6894;52.196;9.904;2023-07-28T06:46:14;19.00;99.90
13642;DHT22;6894;52.196;9.904;2023-07-28T06:48:40;19.20;99.90
13642;DHT22;6894;52.196;9.904;2023-07-28T06:51:07;19.00;99.90
13642;DHT22;6894;52.196;9.904;2023-07-28T06:53:35;19.00;99.90
13642;DHT22;6894;52.196;9.904;2023-07-28T06:56:02;19.00;99.90
13642;DHT22;6894;52.196;9.904;2023-07-28T06:58:29;19.00;99.90
13642;DHT22;6894;52.196;9.904;2023-07-28T07:00:55;19.00;99.90
13642;DHT22;6894;52.196;9.904;2023-07-28T07:03:23;19.00;99.90
13642;DHT22;6894;52.196;9.904;2023-07-28T07:05:50;19.00;99.90
13642;DHT22;6894;52.196;9.904;2023-07-28T07:08:17;19.00;99.90
13642;DHT22;6894;52.196;9.904;2023-07-28T07:10:48;19.00;99.90
13642;DHT22;6894;52.196;9.904;2023-07-28T07:13:15;19.00;99.90
13642;DHT22;6894;52.196;9.904;2023-07-28T07:15:42;19.00;99.90
13642;DHT22;6894;52.196;9.904;2023-07-28T07:18:09;19.10;99.90
13642;DHT22;6894;52.196;9.904;2023-07-28T07:20:36;19.20;99.90
13642;DHT22;6894;52.196;9.904;2023-07-28T07:23:03;19.30;99.90
13642;DHT22;6894;52.196;9.904;2023-07-28T07:25:30;19.30;99.90
13642;DHT22;6894;52.196;9.904;2023-07-28T07:27:58;19.30;99.90
13642;DHT22;6894;52.196;9.904;2023-07-28T07:30:25;19.30;99.90
13642;DHT22;6894;52.196;9.904;2023-07-28T07:32:51;19.40;99.90
13642;DHT22;6894;52.196;9.904;2023-07-28T07:35:18;19.30;99.90
13642;DHT22;6894;52.196;9.904;2023-07-28T07:37:45;19.30;99.90
13642;DHT22;6894;52.196;9.904;2023-07-28T07:40:12;19.40;99.90
13642;DHT22;6894;52.196;9.904;2023-07-28T07:42:41;19.40;99.90
13642;DHT22;6894;52.196;9.904;2023-07-28T07:45:11;19.50;99.90
13642;DHT22;6894;52.196;9.904;2023-07-28T07:47:38;19.50;99.90
13642;DHT22;6894;52.196;9.904;2023-07-28T07:50:06;19.50;99.90
13642;DHT22;6894;52.196;9.904;2023-07-28T07:52:34;19.60;99.90
13642;DHT22;6894;52.196;9.904;2023-07-28T07:55:01;19.80;99.90
13642;DHT22;6894;52.196;9.904;2023-07-28T07:57:27;19.90;99.90
13642;DHT22;6894;52.196;9.904;2023-07-28T07:59:54;20.20;99.90
13642;DHT22;6894;52.196;9.904;2023-07-28T08:02:22;20.40;99.90
13642;DHT22;6894;52.196;9.904;2023-07-28T08:04:49;20.60;99.90
13642;DHT22;6894;52.196;9.904;2023-07-28T08:07:16;20.70;99.90
13642;DHT22;6894;52.196;9.904;2023-07-28T08:09:42;20.80;99.90
13642;DHT22;6894;52.196;9.904;2023-07-28T08:12:09;20.80;99.90
13642;DHT22;6894;52.196;9.904;2023-07-28T08:14:36;20.80;99.90
13642;DHT22;6894;52.196;9.904;2023-07-28T08:17:03;21.00;99.90
13642;DHT22;6894;52.196;9.904;2023-07-28T08:19:31;21.20;99.90
13642;DHT22;6894;52.196;9.904;2023-07-28T08:21:58;21.30;99.90
13642;DHT22;6894;52.196;9.904;2023-07-28T08:24:24;21.50;99.90
13642;DHT22;6894;52.196;9.904;2023-07-28T08:26:51;21.60;99.90
13642;DHT22;6894;52.196;9.904;2023-07-28T08:29:18;21.70;99.90
13642;DHT22;6894;52.196;9.904;2023-07-28T08:31:45;21.80;99.90
13642;DHT22;6894;52.196;9.904;2023-07-28T08:34:12;21.90;99.90
13642;DHT22;6894;52.196;9.904;2023-07-28T08:36:40;22.00;99.90
13642;DHT22;6894;52.196;9.904;2023-07-28T08:39:07;22.30;99.90
13642;DHT22;6894;52.196;9.904;2023-07-28T08:41:35;22.80;99.90
13642;DHT22;6894;52.196;9.904;2023-07-28T08:44:02;23.00;99.90
13642;DHT22;6894;52.196;9.904;2023-07-28T08:46:29;23.10;99.90
13642;DHT22;6894;52.196;9.904;2023-07-28T08:48:59;23.20;99.90
13642;DHT22;6894;52.196;9.904;2023-07-28T08:51:26;23.30;99.90
13642;DHT22;6894;52.196;9.904;2023-07-28T08:53:54;23.30;99.90
13642;DHT22;6894;52.196;9.904;2023-07-28T08:56:21;23.00;99.90
13642;DHT22;6894;52.196;9.904;2023-07-28T08:58:49;22.90;99.90
13642;DHT22;6894;52.196;9.904;2023-07-28T09:01:15;22.90;99.90
13642;DHT22;6894;52.196;9.904;2023-07-28T09:03:42;23.10;99.90
13642;DHT22;6894;52.196;9.904;2023-07-28T09:06:09;23.30;99.90
13642;DHT22;6894;52.196;9.904;2023-07-28T09:08:36;23.30;99.90
13642;DHT22;6894;52.196;9.904;2023-07-28T09:11:05;23.20;99.90
13642;DHT22;6894;52.196;9.904;2023-07-28T09:13:36;23.10;99.90
13642;DHT22;6894;52.196;9.904;2023-07-28T09:16:03;22.90;99.90
13642;DHT22;6894;52.196;9.904;2023-07-28T09:18:30;22.90;99.90
13642;DHT22;6894;52.196;9.904;2023-07-28T09:20:57;22.70;99.90
13642;DHT22;6894;52.196;9.904;2023-07-28T09:23:28;22.70;99.90
13642;DHT22;6894;52.196;9.904;2023-07-28T09:25:59;22.70;99.90
13642;DHT22;6894;52.196;9.904;2023-07-28T09:28:37;22.80;99.90
13642;DHT22;6894;52.196;9.904;2023-07-28T09:31:05;22.80;99.90
13642;DHT22;6894;52.196;9.904;2023-07-28T09:33:33;22.80;99.90
13642;DHT22;6894;52.196;9.904;2023-07-28T09:36:07;22.70;99.90
13642;DHT22;6894;52.196;9.904;2023-07-28T09:38:36;22.80;99.90
13642;DHT22;6894;52.196;9.904;2023-07-28T09:41:04;22.90;99.90
13642;DHT22;6894;52.196;9.904;2023-07-28T09:43:33;23.00;99.90
13642;DHT22;6894;52.196;9.904;2023-07-28T09:46:03;22.90;99.90
13642;DHT22;6894;52.196;9.904;2023-07-28T09:48:32;22.80;99.90
13642;DHT22;6894;52.196;9.904;2023-07-28T09:51:05;22.70;99.90
13642;DHT22;6894;52.196;9.904;2023-07-28T09:53:37;23.00;99.90
13642;DHT22;6894;52.196;9.904;2023-07-28T09:56:08;23.10;99.90
13642;DHT22;6894;52.196;9.904;2023-07-28T09:58:38;23.20;99.90
13642;DHT22;6894;52.196;9.904;2023-07-28T10:01:10;23.20;99.90
13642;DHT22;6894;52.196;9.904;2023-07-28T10:03:37;23.30;99.90
13642;DHT22;6894;52.196;9.904;2023-07-28T10:06:04;23.20;99.90
13642;DHT22;6894;52.196;9.904;2023-07-28T10:08:31;23.30;99.90
13642;DHT22;6894;52.196;9.904;2023-07-28T10:10:59;23.40;99.90
13642;DHT22;6894;52.196;9.904;2023-07-28T10:13:26;23.80;99.90
13642;DHT22;6894;52.196;9.904;2023-07-28T10:15:53;24.10;99.90
13642;DHT22;6894;52.196;9.904;2023-07-28T10:18:22;24.30;99.90
13642;DHT22;6894;52.196;9.904;2023-07-28T10:20:52;24.30;99.90
13642;DHT22;6894;52.196;9.904;2023-07-28T10:23:21;24.20;99.90
13642;DHT22;6894;52.196;9.904;2023-07-28T10:25:56;24.20;99.90
13642;DHT22;6894;52.196;9.904;2023-07-28T10:28:28;24.60;99.90
13642;DHT22;6894;52.196;9.904;2023-07-28T10:30:57;24.70;99.90
13642;DHT22;6894;52.196;9.904;2023-07-28T10:33:31;24.60;99.90
13642;DHT22;6894;52.196;9.904;2023-07-28T10:35:59;24.70;99.90
13642;DHT22;6894;52.196;9.904;2023-07-28T10:38:30;24.90;99.90
13642;DHT22;6894;52.196;9.904;2023-07-28T10:41:14;24.90;99.90
13642;DHT22;6894;52.196;9.904;2023-07-28T10:43:43;25.10;99.90
13642;DHT22;6894;52.196;9.904;2023-07-28T10:46:11;25.20;99.90
13642;DHT22;6894;52.196;9.904;2023-07-28T10:48:43;25.40;99.90
13642;DHT22;6894;52.196;9.904;2023-07-28T10:51:11;25.50;99.90
13642;DHT22;6894;52.196;9.904;2023-07-28T10:53:38;25.10;99.90
13642;DHT22;6894;52.196;9.904;2023-07-28T10:56:05;25.20;99.90
13642;DHT22;6894;52.196;9.904;2023-07-28T10:58:34;25.10;99.90
13642;DHT22;6894;52.196;9.904;2023-07-28T11:01:02;25.30;99.90
13642;DHT22;6894;52.196;9.904;2023-07-28T11:03:29;25.30;99.90
13642;DHT22;6894;52.196;9.904;2023-07-28T11:05:57;25.30;99.90
13642;DHT22;6894;52.196;9.904;2023-07-28T11:08:24;25.40;99.90
13642;DHT22;6894;52.196;9.904;2023-07-28T11:10:51;25.20;99.90
13642;DHT22;6894;52.196;9.904;2023-07-28T11:13:18;25.00;99.90
13642;DHT22;6894;52.196;9.904;2023-07-28T11:15:45;25.20;99.90
13642;DHT22;6894;52.196;9.904;2023-07-28T11:18:15;25.10;99.90
13642;DHT22;6894;52.196;9.904;2023-07-28T11:20:42;25.00;99.90
13642;DHT22;6894;52.196;9.904;2023-07-28T11:23:10;24.80;99.90
13642;DHT22;6894;52.196;9.904;2023-07-28T11:25:41;24.70;99.90
13642;DHT22;6894;52.196;9.904;2023-07-28T11:28:09;24.60;99.90
13642;DHT22;6894;52.196;9.904;2023-07-28T11:30:36;24.40;99.90
13642;DHT22;6894;52.196;9.904;2023-07-28T11:33:04;24.30;99.90
13642;DHT22;6894;52.196;9.904;2023-07-28T11:35:30;24.30;99.90
13642;DHT22;6894;52.196;9.904;2023-07-28T11:37:57;24.10;99.90
13642;DHT22;6894;52.196;9.904;2023-07-28T11:40:25;24.10;99.90
13642;DHT22;6894;52.196;9.904;2023-07-28T11:42:54;24.20;99.90
13642;DHT22;6894;52.196;9.904;2023-07-28T11:45:22;24.40;99.90
13642;DHT22;6894;52.196;9.904;2023-07-28T11:47:56;24.70;99.90
13642;DHT22;6894;52.196;9.904;2023-07-28T11:50:24;24.70;99.90
13642;DHT22;6894;52.196;9.904;2023-07-28T11:52:50;24.60;99.90
13642;DHT22;6894;52.196;9.904;2023-07-28T11:55:18;24.50;99.90
13642;DHT22;6894;52.196;9.904;2023-07-28T11:57:48;24.40;99.90
13642;DHT22;6894;52.196;9.904;2023-07-28T12:00:15;24.50;99.90
13642;DHT22;6894;52.196;9.904;2023-07-28T12:02:44;24.60;99.90
13642;DHT22;6894;52.196;9.904;2023-07-28T12:05:14;24.70;99.90
13642;DHT22;6894;52.196;9.904;2023-07-28T12:07:46;24.60;99.90
13642;DHT22;6894;52.196;9.904;2023-07-28T12:10:13;24.60;99.90
13642;DHT22;6894;52.196;9.904;2023-07-28T12:12:41;24.80;99.90
13642;DHT22;6894;52.196;9.904;2023-07-28T12:15:25;24.90;99.90
13642;DHT22;6894;52.196;9.904;2023-07-28T12:18:14;25.00;99.90
13642;DHT22;6894;52.196;9.904;2023-07-28T12:20:42;25.30;99.90
13642;DHT22;6894;52.196;9.904;2023-07-28T12:23:12;25.20;99.90
13642;DHT22;6894;52.196;9.904;2023-07-28T12:25:39;25.30;99.90
13642;DHT22;6894;52.196;9.904;2023-07-28T12:28:06;25.60;99.90
13642;DHT22;6894;52.196;9.904;2023-07-28T12:30:35;25.70;99.90
13642;DHT22;6894;52.196;9.904;2023-07-28T12:33:01;26.00;99.90
13642;DHT22;6894;52.196;9.904;2023-07-28T12:35:29;26.10;99.90
13642;DHT22;6894;52.196;9.904;2023-07-28T12:37:58;26.10;99.90
13642;DHT22;6894;52.196;9.904;2023-07-28T12:40:27;26.40;99.90
13642;DHT22;6894;52.196;9.904;2023-07-28T12:42:55;26.20;99.90
13642;DHT22;6894;52.196;9.904;2023-07-28T12:45:22;26.20;99.90
13642;DHT22;6894;52.196;9.904;2023-07-28T12:47:52;26.30;99.90
13642;DHT22;6894;52.196;9.904;2023-07-28T12:50:19;26.50;99.90
13642;DHT22;6894;52.196;9.904;2023-07-28T12:52:47;26.40;99.90
13642;DHT22;6894;52.196;9.904;2023-07-28T12:55:14;26.30;99.90
13642;DHT22;6894;52.196;9.904;2023-07-28T12:57:41;26.20;99.90
13642;DHT22;6894;52.196;9.904;2023-07-28T13:00:08;26.00;99.90
13642;DHT22;6894;52.196;9.904;2023-07-28T13:02:39;26.20;99.90
13642;DHT22;6894;52.196;9.904;2023-07-28T13:05:08;26.60;99.90
13642;DHT22;6894;52.196;9.904;2023-07-28T13:07:35;26.70;99.90
13642;DHT22;6894;52.196;9.904;2023-07-28T13:10:03;26.60;99.90
13642;DHT22;6894;52.196;9.904;2023-07-28T13:12:30;26.50;99.90
13642;DHT22;6894;52.196;9.904;2023-07-28T13:14:56;26.50;99.90
13642;DHT22;6894;52.196;9.904;2023-07-28T13:17:23;26.40;99.90
13642;DHT22;6894;52.196;9.904;2023-07-28T13:19:50;26.60;99.90
13642;DHT22;6894;52.196;9.904;2023-07-28T13:22:18;26.80;99.90
13642;DHT22;6894;52.196;9.904;2023-07-28T13:24:44;26.50;99.90
13642;DHT22;6894;52.196;9.904;2023-07-28T13:27:11;26.10;99.90
13642;DHT22;6894;52.196;9.904;2023-07-28T13:29:38;26.20;99.90
13642;DHT22;6894;52.196;9.904;2023-07-28T13:32:15;26.20;99.90
13642;DHT22;6894;52.196;9.904;2023-07-28T13:34:42;26.10;99.90
13642;DHT22;6894;52.196;9.904;2023-07-28T13:37:09;26.20;99.90
13642;DHT22;6894;52.196;9.904;2023-07-28T13:39:37;26.50;99.90
13642;DHT22;6894;52.196;9.904;2023-07-28T13:42:04;26.50;99.90
13642;DHT22;6894;52.196;9.904;2023-07-28T13:44:30;26.00;99.90
13642;DHT22;6894;52.196;9.904;2023-07-28T13:46:57;26.00;99.90
13642;DHT22;6894;52.196;9.904;2023-07-28T13:49:24;26.00;99.90
13642;DHT22;6894;52.196;9.904;2023-07-28T13:51:50;26.20;99.90
13642;DHT22;6894;52.196;9.904;2023-07-28T13:54:17;26.50;99.90
13642;DHT22;6894;52.196;9.904;2023-07-28T13:56:45;26.40;99.90
13642;DHT22;6894;52.196;9.904;2023-07-28T13:59:12;26.20;99.90
13642;DHT22;6894;52.196;9.904;2023-07-28T14:01:39;26.50;99.90
13642;DHT22;6894;52.196;9.904;2023-07-28T14:04:05;26.70;99.90
13642;DHT22;6894;52.196;9.904;2023-07-28T14:06:32;26.60;99.90
13642;DHT22;6894;52.196;9.904;2023-07-28T14:08:59;26.80;99.90
13642;DHT22;6894;52.196;9.904;2023-07-28T14:11:25;26.80;99.90
13642;DHT22;6894;52.196;9.904;2023-07-28T14:13:53;27.00;99.90
13642;DHT22;6894;52.196;9.904;2023-07-28T14:16:20;26.80;99.90
13642;DHT22;6894;52.196;9.904;2023-07-28T14:18:47;27.00;99.90
13642;DHT22;6894;52.196;9.904;2023-07-28T14:21:15;26.90;99.90
13642;DHT22;6894;52.196;9.904;2023-07-28T14:23:42;26.80;99.90
13642;DHT22;6894;52.196;9.904;2023-07-28T14:26:09;27.20;99.90
13642;DHT22;6894;52.196;9.904;2023-07-28T14:28:36;27.10;99.90
13642;DHT22;6894;52.196;9.904;2023-07-28T14:31:04;27.40;99.90
13642;DHT22;6894;52.196;9.904;2023-07-28T14:33:30;27.40;99.90
13642;DHT22;6894;52.196;9.904;2023-07-28T14:35:57;27.40;99.90
13642;DHT22;6894;52.196;9.904;2023-07-28T14:38:24;27.30;99.90
13642;DHT22;6894;52.196;9.904;2023-07-28T14:40:50;27.20;99.90
13642;DHT22;6894;52.196;9.904;2023-07-28T14:43:17;27.10;99.90
13642;DHT22;6894;52.196;9.904;2023-07-28T14:45:45;26.70;99.90
13642;DHT22;6894;52.196;9.904;2023-07-28T14:48:13;26.60;99.90
13642;DHT22;6894;52.196;9.904;2023-07-28T14:50:39;26.70;99.90
13642;DHT22;6894;52.196;9.904;2023-07-28T14:53:27;26.80;99.90
13642;DHT22;6894;52.196;9.904;2023-07-28T14:55:54;27.30;99.90
13642;DHT22;6894;52.196;9.904;2023-07-28T14:58:21;27.40;99.90
13642;DHT22;6894;52.196;9.904;2023-07-28T15:00:48;27.40;99.90
13642;DHT22;6894;52.196;9.904;2023-07-28T15:03:16;27.20;99.90
13642;DHT22;6894;52.196;9.904;2023-07-28T15:05:43;27.00;99.90
13642;DHT22;6894;52.196;9.904;2023-07-28T15:08:10;27.10;99.90
13642;DHT22;6894;52.196;9.904;2023-07-28T15:10:37;27.10;99.90
13642;DHT22;6894;52.196;9.904;2023-07-28T15:13:03;27.10;99.90
13642;DHT22;6894;52.196;9.904;2023-07-28T15:15:30;27.40;99.90
13642;DHT22;6894;52.196;9.904;2023-07-28T15:17:57;27.40;99.90
13642;DHT22;6894;52.196;9.904;2023-07-28T15:20:25;27.20;99.90
13642;DHT22;6894;52.196;9.904;2023-07-28T15:22:52;27.10;99.90
13642;DHT22;6894;52.196;9.904;2023-07-28T15:25:18;27.10;99.90
13642;DHT22;6894;52.196;9.904;2023-07-28T15:27:45;26.80;99.90
13642;DHT22;6894;52.196;9.904;2023-07-28T15:30:12;27.00;99.90
13642;DHT22;6894;52.196;9.904;2023-07-28T15:32:39;27.20;99.90
13642;DHT22;6894;52.196;9.904;2023-07-28T15:35:06;27.30;99.90
13642;DHT22;6894;52.196;9.904;2023-07-28T15:37:34;27.40;99.90
13642;DHT22;6894;52.196;9.904;2023-07-28T15:40:01;27.40;99.90
13642;DHT22;6894;52.196;9.904;2023-07-28T15:42:29;27.40;99.90
13642;DHT22;6894;52.196;9.904;2023-07-28T15:44:55;27.50;99.90
13642;DHT22;6894;52.196;9.904;2023-07-28T15:47:22;27.40;99.90